createdAt,value
2018-09-03T00:00:07.677Z,7.43
2018-09-03T00:02:35.900Z,6.13
2018-09-03T00:05:04.179Z,6.97
2018-09-03T00:07:32.453Z,8.40
2018-09-03T00:10:00.600Z,7.47
2018-09-03T00:12:28.772Z,6.00
2018-09-03T00:14:57.015Z,8.83
2018-09-03T00:17:25.182Z,7.90
2018-09-03T00:19:53.439Z,6.90
2018-09-03T00:22:21.596Z,7.45
2018-09-03T00:24:49.813Z,8.27
2018-09-03T00:27:18.018Z,6.80
2018-09-03T00:29:46.216Z,8.75
2018-09-03T00:32:19.702Z,7.00
2018-09-03T00:34:53.316Z,7.97
2018-09-03T00:37:26.869Z,6.83
2018-09-03T00:40:00.401Z,8.35
2018-09-03T00:42:34.011Z,7.70
2018-09-03T00:45:07.603Z,7.45
2018-09-03T00:47:35.789Z,7.33
2018-09-03T00:50:03.984Z,7.08
2018-09-03T00:52:32.162Z,8.98
2018-09-03T00:55:00.300Z,8.85
2018-09-03T00:57:28.485Z,7.37
2018-09-03T00:59:56.627Z,7.65
2018-09-03T01:02:24.734Z,8.43
2018-09-03T01:04:52.847Z,8.95
2018-09-03T01:07:20.999Z,7.65
2018-09-03T01:09:49.251Z,13.78
2018-09-03T01:12:17.392Z,8.38
2018-09-03T01:14:45.595Z,10.18
2018-09-03T01:17:13.738Z,9.23
2018-09-03T01:19:41.896Z,9.70
2018-09-03T01:22:10.124Z,8.85
2018-09-03T01:24:38.287Z,8.65
2018-09-03T01:27:06.516Z,8.10
2018-09-03T01:29:34.642Z,8.55
2018-09-03T01:32:02.832Z,9.78
2018-09-03T01:34:31.008Z,11.78
2018-09-03T01:36:59.260Z,9.40
2018-09-03T01:39:27.412Z,8.38
2018-09-03T01:41:55.611Z,8.65
2018-09-03T01:44:23.780Z,11.25
2018-09-03T01:46:51.982Z,9.85
2018-09-03T01:49:20.142Z,9.45
2018-09-03T01:51:48.325Z,8.53
2018-09-03T01:54:16.472Z,9.88
2018-09-03T01:56:44.715Z,10.03
2018-09-03T01:59:12.918Z,8.73
2018-09-03T02:01:41.103Z,10.58
2018-09-03T02:04:09.335Z,9.25
2018-09-03T02:06:37.539Z,11.80
2018-09-03T02:09:08.768Z,9.80
2018-09-03T02:11:36.977Z,9.98
2018-09-03T02:14:05.349Z,12.03
2018-09-03T02:16:33.572Z,9.30
2018-09-03T02:19:01.723Z,10.30
2018-09-03T02:21:29.927Z,10.08
2018-09-03T02:23:58.153Z,10.65
2018-09-03T02:26:26.426Z,13.78
2018-09-03T02:28:54.610Z,10.55
2018-09-03T02:31:22.784Z,10.13
2018-09-03T02:33:50.979Z,10.20
2018-09-03T02:36:19.299Z,11.88
2018-09-03T02:38:47.494Z,10.30
2018-09-03T02:41:15.762Z,10.38
2018-09-03T02:43:43.991Z,9.88
2018-09-03T02:46:12.152Z,12.05
2018-09-03T02:48:40.343Z,10.93
2018-09-03T02:51:08.522Z,11.53
2018-09-03T02:53:36.679Z,13.43
2018-09-03T02:56:04.947Z,10.72
2018-09-03T02:58:33.172Z,10.93
2018-09-03T03:01:01.369Z,11.78
2018-09-03T03:03:29.550Z,11.85
2018-09-03T03:05:57.725Z,11.73
2018-09-03T03:08:25.851Z,10.63
2018-09-03T03:10:54.023Z,10.48
2018-09-03T03:13:22.234Z,15.03
2018-09-03T03:15:50.411Z,11.70
2018-09-03T03:18:18.574Z,12.20
2018-09-03T03:20:46.735Z,12.93
2018-09-03T03:23:14.919Z,12.25
2018-09-03T03:25:43.137Z,12.90
2018-09-03T03:28:11.284Z,12.25
2018-09-03T03:30:39.458Z,11.43
2018-09-03T03:33:07.668Z,12.50
2018-09-03T03:35:35.895Z,12.40
2018-09-03T03:38:04.114Z,16.90
2018-09-03T03:40:32.291Z,14.38
2018-09-03T03:43:00.533Z,14.20
2018-09-03T03:45:28.740Z,14.07
2018-09-03T03:47:56.925Z,15.00
2018-09-03T03:50:25.131Z,13.00
2018-09-03T03:52:53.321Z,14.00
2018-09-03T03:55:21.516Z,16.23
2018-09-03T03:57:49.715Z,17.52
2018-09-03T04:00:17.907Z,12.70
2018-09-03T04:02:46.103Z,16.93
2018-09-03T04:05:14.271Z,15.18
2018-09-03T04:07:42.469Z,14.53
2018-09-03T04:10:10.639Z,12.88
2018-09-03T04:12:39.706Z,13.13
2018-09-03T04:15:07.909Z,14.53
2018-09-03T04:17:36.156Z,15.40
2018-09-03T04:20:04.903Z,14.07
2018-09-03T04:22:33.732Z,15.95
2018-09-03T04:25:02.774Z,13.78
2018-09-03T04:27:31.017Z,13.45
2018-09-03T04:29:59.185Z,13.10
2018-09-03T04:32:27.369Z,14.10
2018-09-03T04:34:55.568Z,16.97
2018-09-03T04:37:23.739Z,12.13
2018-09-03T04:39:51.916Z,13.05
2018-09-03T04:42:20.081Z,14.30
2018-09-03T04:44:48.283Z,12.15
2018-09-03T04:47:16.432Z,12.85
2018-09-03T04:49:44.613Z,15.00
2018-09-03T04:52:12.824Z,14.10
2018-09-03T04:54:41.103Z,14.13
2018-09-03T04:57:09.251Z,12.90
2018-09-03T04:59:37.418Z,12.30
2018-09-03T05:02:05.766Z,19.23
2018-09-03T05:04:34.093Z,14.45
2018-09-03T05:07:02.346Z,12.37
2018-09-03T05:09:30.533Z,15.08
2018-09-03T05:11:58.754Z,10.30
2018-09-03T05:14:27.311Z,11.87
2018-09-03T05:16:55.600Z,11.93
2018-09-03T05:19:23.896Z,11.55
2018-09-03T05:21:52.497Z,12.33
2018-09-03T05:24:20.646Z,10.13
2018-09-03T05:26:48.924Z,11.00
2018-09-03T05:29:17.239Z,10.23
2018-09-03T05:31:45.412Z,10.00
2018-09-03T05:34:13.622Z,11.45
2018-09-03T05:36:41.816Z,9.25
2018-09-03T05:39:11.296Z,17.73
2018-09-03T05:41:39.496Z,9.70
2018-09-03T05:44:08.085Z,10.80
2018-09-03T05:46:36.697Z,8.40
2018-09-03T05:49:04.949Z,8.50
2018-09-03T05:51:33.225Z,9.43
2018-09-03T05:54:01.790Z,7.97
2018-09-03T05:56:30.059Z,10.90
2018-09-03T05:58:58.231Z,7.80
2018-09-03T06:01:26.472Z,10.17
2018-09-03T06:03:54.600Z,8.33
2018-09-03T06:06:23.881Z,7.17
2018-09-03T06:08:52.176Z,12.20
2018-09-03T06:11:20.468Z,10.63
2018-09-03T06:13:48.648Z,9.30
2018-09-03T06:16:16.821Z,11.47
2018-09-03T06:18:46.158Z,7.70
2018-09-03T06:21:14.396Z,7.83
2018-09-03T06:23:42.575Z,8.00
2018-09-03T06:26:10.817Z,9.40
2018-09-03T06:28:39.621Z,7.43
2018-09-03T06:31:07.874Z,8.30
2018-09-03T06:33:36.067Z,8.73
2018-09-03T06:36:04.304Z,8.00
2018-09-03T06:38:32.516Z,8.30
2018-09-03T06:41:00.910Z,8.03
2018-09-03T06:43:29.800Z,7.87
2018-09-03T06:46:00.374Z,8.40
2018-09-03T06:48:28.756Z,9.43
2018-09-03T06:50:56.918Z,8.53
2018-09-03T06:53:25.184Z,9.93
2018-09-03T06:55:53.388Z,7.70
2018-09-03T06:58:21.979Z,9.40
2018-09-03T07:00:50.188Z,8.90
2018-09-03T07:03:18.573Z,8.37
2018-09-03T07:05:46.884Z,9.83
2018-09-03T07:08:15.127Z,7.93
2018-09-03T07:10:43.379Z,8.77
2018-09-03T07:13:26.289Z,8.80
2018-09-03T07:15:54.670Z,9.90
2018-09-03T07:18:22.845Z,8.20
2018-09-03T07:20:51.041Z,9.00
2018-09-03T07:23:19.204Z,9.00
2018-09-03T07:25:47.363Z,9.30
2018-09-03T07:28:17.746Z,8.77
2018-09-03T07:30:45.926Z,8.73
2018-09-03T07:33:14.143Z,9.10
2018-09-03T07:35:42.371Z,9.23
2018-09-03T07:38:10.500Z,9.67
2018-09-03T07:40:38.724Z,7.70
2018-09-03T07:43:07.317Z,10.67
2018-09-03T07:45:35.552Z,8.83
2018-09-03T07:48:03.970Z,10.30
2018-09-03T07:50:32.131Z,9.77
2018-09-03T07:53:00.379Z,9.53
2018-09-03T07:55:28.511Z,8.53
2018-09-03T07:57:56.710Z,6.93
2018-09-03T08:00:24.865Z,8.47
2018-09-03T08:02:53.074Z,8.23
2018-09-03T08:05:21.238Z,9.67
2018-09-03T08:07:49.387Z,8.90
2018-09-03T08:10:17.520Z,7.77
2018-09-03T08:12:45.773Z,8.03
2018-09-03T08:15:13.965Z,7.57
2018-09-03T08:17:42.211Z,9.63
2018-09-03T08:20:10.404Z,8.37
2018-09-03T08:22:38.500Z,10.40
2018-09-03T08:25:06.760Z,7.80
2018-09-03T08:27:34.957Z,8.63
2018-09-03T08:30:03.179Z,10.60
2018-09-03T08:32:31.391Z,10.20
2018-09-03T08:34:59.692Z,8.37
2018-09-03T08:37:27.880Z,9.53
2018-09-03T08:39:56.105Z,9.43
2018-09-03T08:42:24.363Z,8.13
2018-09-03T08:44:52.625Z,8.97
2018-09-03T08:47:20.682Z,7.03
2018-09-03T08:49:48.874Z,12.30
2018-09-03T08:52:17.036Z,8.30
2018-09-03T08:54:45.227Z,8.40
2018-09-03T08:57:13.452Z,8.27
2018-09-03T08:59:41.712Z,8.60
2018-09-03T09:02:09.913Z,8.77
2018-09-03T09:04:38.081Z,11.43
2018-09-03T09:07:06.277Z,8.87
2018-09-03T09:09:34.548Z,7.87
2018-09-03T09:12:02.738Z,11.93
2018-09-03T09:14:30.940Z,9.50
2018-09-03T09:16:59.108Z,9.27
2018-09-03T09:19:27.336Z,8.17
2018-09-03T09:21:55.512Z,8.40
2018-09-03T09:24:23.721Z,9.73
2018-09-03T09:26:51.820Z,7.40
2018-09-03T09:29:19.966Z,8.97
2018-09-03T09:31:48.134Z,9.90
2018-09-03T09:34:16.344Z,9.67
2018-09-03T09:36:44.647Z,10.47
2018-09-03T09:39:12.828Z,9.80
2018-09-03T09:41:41.000Z,9.80
2018-09-03T09:44:09.193Z,13.30
2018-09-03T09:46:37.510Z,9.30
2018-09-03T09:49:05.708Z,10.13
2018-09-03T09:51:33.896Z,10.53
2018-09-03T09:54:02.280Z,12.93
2018-09-03T09:56:30.682Z,10.50
2018-09-03T09:58:58.962Z,11.10
2018-09-03T10:01:34.005Z,11.97
2018-09-03T10:04:02.288Z,11.90
2018-09-03T10:06:30.541Z,10.70
2018-09-03T10:08:58.976Z,11.03
2018-09-03T10:11:27.705Z,10.43
2018-09-03T10:13:56.077Z,11.20
2018-09-03T10:16:24.701Z,11.43
2018-09-03T10:18:53.167Z,12.57
2018-09-03T10:21:22.041Z,10.53
2018-09-03T10:23:50.314Z,12.40
2018-09-03T10:26:18.956Z,11.00
2018-09-03T10:28:47.133Z,13.03
2018-09-03T10:31:15.301Z,11.23
2018-09-03T10:33:43.436Z,11.43
2018-09-03T10:36:11.769Z,11.87
2018-09-03T10:38:48.368Z,10.07
2018-09-03T10:41:16.565Z,12.77
2018-09-03T10:43:44.942Z,12.17
2018-09-03T10:46:13.408Z,12.20
2018-09-03T10:48:43.155Z,12.97
2018-09-03T10:51:11.502Z,11.30
2018-09-03T10:53:50.249Z,10.70
2018-09-03T10:56:18.843Z,13.37
2018-09-03T10:58:47.178Z,12.10
2018-09-03T11:01:15.644Z,12.67
2018-09-03T11:03:43.877Z,13.33
2018-09-03T11:06:13.696Z,11.33
2018-09-03T11:08:41.868Z,12.53
2018-09-03T11:11:10.266Z,12.47
2018-09-03T11:13:38.821Z,10.70
2018-09-03T11:16:07.193Z,13.13
2018-09-03T11:18:36.968Z,12.13
2018-09-03T11:21:10.784Z,12.97
2018-09-03T11:23:40.266Z,12.47
2018-09-03T11:26:08.802Z,11.93
2018-09-03T11:28:39.147Z,14.83
2018-09-03T11:31:07.471Z,12.30
2018-09-03T11:33:35.840Z,15.20
2018-09-03T11:36:04.212Z,12.33
2018-09-03T11:38:32.571Z,14.10
2018-09-03T11:41:01.164Z,13.47
2018-09-03T11:43:30.010Z,12.27
2018-09-03T11:45:58.341Z,15.87
2018-09-03T11:48:26.613Z,12.77
2018-09-03T11:50:54.921Z,13.20
2018-09-03T11:53:24.841Z,13.43
2018-09-03T11:55:53.783Z,13.20
2018-09-03T11:58:22.258Z,12.13
2018-09-03T12:00:53.052Z,14.30
2018-09-03T12:03:23.165Z,12.13
2018-09-03T12:05:52.585Z,13.23
2018-09-03T12:08:22.519Z,14.10
2018-09-03T12:10:51.869Z,13.17
2018-09-03T12:13:21.082Z,14.63
2018-09-03T12:16:23.695Z,12.83
2018-09-03T12:18:56.529Z,13.40
2018-09-03T12:21:34.340Z,15.83
2018-09-03T12:24:25.265Z,12.43
2018-09-03T12:27:06.718Z,13.60
2018-09-03T12:29:35.428Z,15.00
2018-09-03T12:32:07.399Z,13.80
2018-09-03T12:34:42.116Z,14.43
2018-09-03T12:37:14.926Z,14.50
2018-09-03T12:39:54.375Z,14.50
2018-09-03T12:42:25.480Z,14.63
2018-09-03T12:44:58.848Z,15.90
2018-09-03T12:47:31.253Z,14.80
2018-09-03T12:50:11.321Z,14.63
2018-09-03T12:52:41.606Z,16.50
2018-09-03T12:55:14.099Z,15.10
2018-09-03T12:57:43.960Z,15.40
2018-09-03T13:00:17.984Z,15.20
2018-09-03T13:02:50.793Z,15.13
2018-09-03T13:05:27.590Z,15.90
2018-09-03T13:07:58.044Z,15.23
2018-09-03T13:10:35.499Z,15.43
2018-09-03T13:13:09.118Z,14.20
2018-09-03T13:15:44.158Z,14.33
2018-09-03T13:18:32.618Z,18.10
2018-09-03T13:21:05.137Z,16.67
2018-09-03T13:23:40.884Z,16.70
2018-09-03T13:26:09.541Z,16.53
2018-09-03T13:28:37.928Z,15.37
2018-09-03T13:31:08.515Z,16.70
2018-09-03T13:33:39.549Z,17.27
2018-09-03T13:36:08.141Z,15.70
2018-09-03T13:38:38.854Z,16.67
2018-09-03T13:41:07.261Z,17.20
2018-09-03T13:43:38.113Z,16.13
2018-09-03T13:46:08.785Z,16.70
2018-09-03T13:48:39.432Z,19.00
2018-09-03T13:51:11.095Z,18.87
2018-09-03T13:53:41.304Z,17.10
2018-09-03T13:56:17.068Z,17.83
2018-09-03T13:58:45.709Z,18.23
2018-09-03T14:01:21.964Z,15.97
2018-09-03T14:03:50.579Z,17.00
2018-09-03T14:06:19.150Z,15.60
2018-09-03T14:08:48.157Z,17.03
2018-09-03T14:11:17.373Z,16.13
2018-09-03T14:13:47.037Z,16.67
2018-09-03T14:16:15.824Z,16.07
2018-09-03T14:18:44.400Z,16.37
2018-09-03T14:21:13.629Z,17.13
2018-09-03T14:23:41.868Z,17.37
2018-09-03T14:26:10.171Z,15.87
2018-09-03T14:28:40.617Z,14.23
2018-09-03T14:31:09.749Z,14.83
2018-09-03T14:33:41.990Z,16.03
2018-09-03T14:36:11.268Z,15.07
2018-09-03T14:38:44.135Z,16.33
2018-09-03T14:41:14.617Z,16.20
2018-09-03T14:43:48.446Z,17.43
2018-09-03T14:46:17.848Z,16.27
2018-09-03T14:48:46.198Z,16.23
2018-09-03T14:51:15.530Z,16.23
2018-09-03T14:53:43.924Z,17.60
2018-09-03T14:56:12.231Z,16.80
2018-09-03T14:58:40.469Z,18.10
2018-09-03T15:01:08.830Z,16.47
2018-09-03T15:03:38.404Z,17.13
2018-09-03T15:06:06.928Z,17.53
2018-09-03T15:08:35.717Z,18.03
2018-09-03T15:11:04.058Z,17.20
2018-09-03T15:13:32.288Z,17.80
2018-09-03T15:16:00.939Z,17.20
2018-09-03T15:18:29.693Z,16.50
2018-09-03T15:20:58.107Z,16.10
2018-09-03T15:23:26.482Z,18.37
2018-09-03T15:25:55.106Z,18.50
2018-09-03T15:28:24.539Z,18.00
2018-09-03T15:30:52.971Z,15.90
2018-09-03T15:33:21.910Z,18.37
2018-09-03T15:35:50.369Z,17.80
2018-09-03T15:38:18.792Z,15.77
2018-09-03T15:40:47.521Z,17.63
2018-09-03T15:43:16.080Z,18.30
2018-09-03T15:45:44.287Z,17.33
2018-09-03T15:48:15.146Z,16.07
2018-09-03T15:50:45.055Z,17.20
2018-09-03T15:53:13.230Z,15.07
2018-09-03T15:55:41.444Z,15.00
2018-09-03T15:58:11.310Z,13.20
2018-09-03T16:01:02.918Z,14.90
2018-09-03T16:04:16.564Z,12.80
2018-09-03T16:06:46.109Z,12.63
2018-09-03T16:09:14.613Z,14.13
2018-09-03T16:11:46.422Z,11.60
2018-09-03T16:14:18.899Z,13.70
2018-09-03T16:16:53.597Z,13.57
2018-09-03T16:19:55.317Z,14.80
2018-09-03T16:25:18.743Z,12.60
2018-09-03T16:27:54.686Z,15.73
2018-09-03T16:30:34.615Z,11.67
2018-09-03T16:33:09.411Z,13.37
2018-09-03T17:04:25.944Z,11.70
2018-09-03T17:06:54.442Z,13.37
2018-09-03T17:44:25.631Z,8.80
2018-09-03T17:46:59.445Z,9.53
2018-09-03T17:49:29.834Z,9.60
2018-09-03T17:51:58.440Z,9.83
2018-09-03T17:54:26.711Z,9.27
2018-09-03T17:56:54.942Z,8.93
2018-09-03T17:59:23.154Z,9.27
2018-09-03T18:01:51.504Z,10.53
2018-09-03T18:04:19.833Z,9.80
2018-09-03T18:06:48.164Z,10.07
2018-09-03T18:09:16.425Z,9.43
2018-09-03T18:11:45.356Z,10.20
2018-09-03T18:14:13.555Z,11.40
2018-09-03T18:16:41.860Z,9.20
2018-09-03T18:19:10.127Z,11.80
2018-09-03T18:21:40.152Z,12.13
2018-09-03T18:24:08.580Z,9.93
2018-09-03T18:26:36.782Z,10.53
2018-09-03T18:29:05.274Z,9.47
2018-09-03T18:31:33.593Z,9.90
2018-09-03T18:34:01.889Z,9.20
2018-09-03T18:36:30.418Z,11.13
2018-09-03T18:38:58.670Z,9.30
2018-09-03T18:41:27.016Z,10.30
2018-09-03T18:43:56.352Z,8.97
2018-09-03T18:46:24.651Z,11.00
2018-09-03T18:48:52.928Z,12.37
2018-09-03T18:51:21.325Z,10.17
2018-09-03T18:53:49.621Z,11.57
2018-09-03T18:56:17.850Z,9.17
2018-09-03T18:58:46.168Z,10.00
2018-09-03T19:01:14.424Z,8.63
2018-09-03T19:03:43.060Z,10.60
2018-09-03T19:06:11.522Z,7.57
2018-09-03T19:08:39.789Z,11.83
2018-09-03T19:11:08.076Z,10.47
2018-09-03T19:13:36.281Z,9.13
2018-09-03T19:16:04.548Z,11.43
2018-09-03T19:18:32.908Z,10.63
2018-09-03T19:21:01.154Z,13.53
2018-09-03T19:23:29.376Z,8.53
2018-09-03T19:25:57.630Z,10.23
2018-09-03T19:28:25.847Z,9.00
2018-09-03T19:30:54.177Z,10.00
2018-09-03T19:33:22.364Z,9.27
2018-09-03T19:35:50.579Z,8.67
2018-09-03T19:38:18.921Z,9.93
2018-09-03T19:40:47.183Z,7.60
2018-09-03T19:43:15.407Z,9.53
2018-09-03T19:45:45.677Z,9.40
2018-09-03T19:48:13.967Z,13.93
2018-09-03T19:50:42.250Z,14.80
2018-09-03T19:53:10.376Z,8.57
2018-09-03T19:55:38.541Z,10.17
2018-09-03T19:58:06.682Z,12.17
2018-09-03T20:00:34.963Z,11.00
2018-09-03T20:03:03.122Z,10.80
2018-09-03T20:05:31.381Z,11.73
2018-09-03T20:07:59.606Z,9.63
2018-09-03T20:10:27.824Z,10.30
2018-09-03T20:12:56.163Z,9.23
2018-09-03T20:15:26.260Z,10.33
2018-09-03T20:17:55.056Z,7.83
2018-09-03T20:20:23.438Z,13.70
2018-09-03T20:22:51.598Z,10.40
2018-09-03T20:25:19.765Z,11.00
2018-09-03T20:27:47.902Z,8.87
2018-09-03T20:30:16.106Z,9.30
2018-09-03T20:32:44.284Z,10.10
2018-09-03T20:35:12.420Z,8.00
2018-09-03T20:37:40.575Z,8.10
2018-09-03T20:40:08.784Z,9.83
2018-09-03T20:42:36.971Z,8.70
2018-09-03T20:45:05.200Z,17.83
2018-09-03T20:47:33.400Z,12.43
2018-09-03T20:50:01.574Z,10.03
2018-09-03T20:52:29.739Z,8.90
2018-09-03T20:54:57.927Z,10.17
2018-09-03T20:57:26.114Z,8.83
2018-09-03T20:59:54.284Z,8.80
2018-09-03T21:02:22.455Z,8.97
2018-09-03T21:04:50.630Z,9.33
2018-09-03T21:07:20.130Z,7.03
2018-09-03T21:09:48.781Z,13.37
2018-09-03T21:12:17.145Z,8.50
2018-09-03T21:14:45.579Z,8.20
2018-09-03T21:17:14.020Z,10.40
2018-09-03T21:19:42.245Z,8.60
2018-09-03T21:22:10.553Z,7.63
2018-09-03T21:24:38.894Z,10.47
2018-09-03T21:27:07.152Z,9.77
2018-09-03T21:29:35.461Z,10.77
2018-09-03T21:32:03.999Z,8.30
2018-09-03T21:34:32.519Z,7.33
2018-09-03T21:37:01.507Z,9.20
2018-09-03T21:39:29.779Z,7.97
2018-09-03T21:41:58.327Z,8.00
2018-09-03T21:44:27.288Z,8.13
2018-09-03T21:46:56.063Z,9.43
2018-09-03T21:49:24.925Z,9.10
2018-09-03T21:51:53.377Z,8.07
2018-09-03T21:54:21.679Z,11.63
2018-09-03T21:56:50.064Z,7.93
2018-09-03T21:59:18.363Z,10.50
2018-09-03T22:01:46.724Z,10.17
2018-09-03T22:04:14.988Z,8.68
2018-09-03T22:06:43.145Z,10.63
2018-09-03T22:09:11.334Z,7.92
2018-09-03T22:11:39.627Z,12.57
2018-09-03T22:14:07.827Z,7.67
2018-09-03T22:16:36.065Z,7.60
2018-09-03T22:19:04.280Z,6.60
2018-09-03T22:21:32.437Z,7.72
2018-09-03T22:24:00.667Z,7.17
2018-09-03T22:26:28.834Z,6.92
2018-09-03T22:28:57.059Z,8.25
2018-09-03T22:31:25.191Z,6.20
2018-09-03T22:33:53.373Z,6.37
2018-09-03T22:36:21.551Z,6.93
2018-09-03T22:38:50.752Z,7.40
2018-09-03T22:41:18.889Z,6.47
2018-09-03T22:43:47.048Z,6.60
2018-09-03T22:46:15.268Z,6.20
2018-09-03T22:48:43.429Z,6.87
2018-09-03T22:51:11.652Z,6.58
2018-09-03T22:53:39.859Z,6.57
2018-09-03T22:56:08.072Z,6.97
2018-09-03T22:58:36.225Z,6.75
2018-09-03T23:01:04.406Z,5.58
2018-09-03T23:03:32.562Z,6.17
2018-09-03T23:06:00.731Z,8.53
2018-09-03T23:08:28.927Z,6.10
2018-09-03T23:10:57.068Z,6.10
2018-09-03T23:13:25.470Z,6.37
2018-09-03T23:15:53.936Z,5.90
2018-09-03T23:18:23.446Z,6.57
2018-09-03T23:20:51.716Z,5.73
2018-09-03T23:23:19.905Z,6.33
2018-09-03T23:25:48.389Z,6.37
2018-09-03T23:28:16.569Z,6.78
2018-09-03T23:30:44.740Z,6.35
2018-09-03T23:33:12.927Z,6.60
2018-09-03T23:35:41.132Z,7.75
2018-09-03T23:38:09.346Z,8.38
2018-09-03T23:40:37.548Z,8.00
2018-09-03T23:43:05.726Z,6.47
2018-09-03T23:45:33.937Z,7.17
2018-09-03T23:48:02.108Z,6.83
2018-09-03T23:50:30.349Z,6.45
2018-09-03T23:52:58.579Z,7.90
2018-09-03T23:55:26.771Z,6.95
2018-09-03T23:57:55.162Z,6.85
